sensor_id;sensor_type;location;lat;lon;timestamp;P1;durP1;ratioP1;P2;durP2;ratioP2
71937;SDS011;59810;48.800;9.086;2023-02-28T00:01:25;5.57;;;1.40;;
71937;SDS011;59810;48.800;9.086;2023-02-28T00:03:51;6.95;;;1.90;;
71937;SDS011;59810;48.800;9.086;2023-02-28T00:06:17;5.63;;;1.63;;
71937;SDS011;59810;48.800;9.086;2023-02-28T00:08:42;3.83;;;1.43;;
71937;SDS011;59810;48.800;9.086;2023-02-28T00:11:09;5.43;;;1.80;;
71937;SDS011;59810;48.800;9.086;2023-02-28T00:13:37;5.60;;;1.40;;
71937;SDS011;59810;48.800;9.086;2023-02-28T00:16:06;5.28;;;1.60;;
71937;SDS011;59810;48.800;9.086;2023-02-28T00:18:35;4.70;;;1.60;;
71937;SDS011;59810;48.800;9.086;2023-02-28T00:21:04;5.13;;;1.58;;
71937;SDS011;59810;48.800;9.086;2023-02-28T00:23:32;5.47;;;1.57;;
71937;SDS011;59810;48.800;9.086;2023-02-28T00:25:58;6.90;;;1.67;;
71937;SDS011;59810;48.800;9.086;2023-02-28T00:28:23;4.88;;;1.40;;
71937;SDS011;59810;48.800;9.086;2023-02-28T00:30:49;6.73;;;1.80;;
71937;SDS011;59810;48.800;9.086;2023-02-28T00:33:18;3.60;;;1.40;;
71937;SDS011;59810;48.800;9.086;2023-02-28T00:35:43;7.73;;;1.60;;
71937;SDS011;59810;48.800;9.086;2023-02-28T00:38:11;9.18;;;1.90;;
71937;SDS011;59810;48.800;9.086;2023-02-28T00:40:39;4.25;;;1.45;;
71937;SDS011;59810;48.800;9.086;2023-02-28T00:43:07;5.10;;;1.50;;
71937;SDS011;59810;48.800;9.086;2023-02-28T00:45:34;4.65;;;1.55;;
71937;SDS011;59810;48.800;9.086;2023-02-28T00:47:59;6.60;;;1.70;;
71937;SDS011;59810;48.800;9.086;2023-02-28T00:50:27;6.03;;;1.52;;
71937;SDS011;59810;48.800;9.086;2023-02-28T00:52:53;6.60;;;1.67;;
71937;SDS011;59810;48.800;9.086;2023-02-28T00:55:18;6.47;;;1.90;;
71937;SDS011;59810;48.800;9.086;2023-02-28T00:57:46;6.67;;;2.43;;
71937;SDS011;59810;48.800;9.086;2023-02-28T01:00:11;6.38;;;1.70;;
71937;SDS011;59810;48.800;9.086;2023-02-28T01:02:39;5.90;;;2.00;;
71937;SDS011;59810;48.800;9.086;2023-02-28T01:05:05;5.27;;;1.70;;
71937;SDS011;59810;48.800;9.086;2023-02-28T01:07:30;5.87;;;1.60;;
71937;SDS011;59810;48.800;9.086;2023-02-28T01:09:56;7.00;;;1.50;;
71937;SDS011;59810;48.800;9.086;2023-02-28T01:12:21;7.20;;;1.80;;
71937;SDS011;59810;48.800;9.086;2023-02-28T01:14:49;5.97;;;1.77;;
71937;SDS011;59810;48.800;9.086;2023-02-28T01:17:15;6.47;;;2.10;;
71937;SDS011;59810;48.800;9.086;2023-02-28T01:19:40;6.53;;;2.07;;
71937;SDS011;59810;48.800;9.086;2023-02-28T01:22:06;5.73;;;1.97;;
71937;SDS011;59810;48.800;9.086;2023-02-28T01:24:31;7.20;;;1.90;;
71937;SDS011;59810;48.800;9.086;2023-02-28T01:27:03;5.37;;;1.80;;
71937;SDS011;59810;48.800;9.086;2023-02-28T01:29:28;6.53;;;1.88;;
71937;SDS011;59810;48.800;9.086;2023-02-28T01:31:54;5.80;;;1.90;;
71937;SDS011;59810;48.800;9.086;2023-02-28T01:34:21;7.05;;;2.10;;
71937;SDS011;59810;48.800;9.086;2023-02-28T01:36:47;5.07;;;2.00;;
71937;SDS011;59810;48.800;9.086;2023-02-28T01:39:14;5.70;;;1.90;;
71937;SDS011;59810;48.800;9.086;2023-02-28T01:41:40;6.22;;;2.00;;
71937;SDS011;59810;48.800;9.086;2023-02-28T01:46:51;6.60;;;2.03;;
71937;SDS011;59810;48.800;9.086;2023-02-28T01:49:16;5.30;;;1.80;;
71937;SDS011;59810;48.800;9.086;2023-02-28T01:51:47;7.90;;;2.35;;
71937;SDS011;59810;48.800;9.086;2023-02-28T01:54:23;6.30;;;1.90;;
71937;SDS011;59810;48.800;9.086;2023-02-28T01:57:01;5.78;;;1.90;;
71937;SDS011;59810;48.800;9.086;2023-02-28T01:59:35;5.95;;;2.20;;
71937;SDS011;59810;48.800;9.086;2023-02-28T02:02:05;6.70;;;2.53;;
71937;SDS011;59810;48.800;9.086;2023-02-28T02:04:32;6.63;;;2.08;;
71937;SDS011;59810;48.800;9.086;2023-02-28T02:07:03;6.65;;;2.35;;
71937;SDS011;59810;48.800;9.086;2023-02-28T02:09:29;6.22;;;2.22;;
71937;SDS011;59810;48.800;9.086;2023-02-28T02:11:54;6.50;;;1.70;;
71937;SDS011;59810;48.800;9.086;2023-02-28T02:17:19;7.33;;;2.30;;
71937;SDS011;59810;48.800;9.086;2023-02-28T02:20:16;8.77;;;2.35;;
71937;SDS011;59810;48.800;9.086;2023-02-28T02:34:04;6.07;;;2.45;;
71937;SDS011;59810;48.800;9.086;2023-02-28T02:36:51;7.78;;;2.50;;
71937;SDS011;59810;48.800;9.086;2023-02-28T02:41:59;8.27;;;2.55;;
71937;SDS011;59810;48.800;9.086;2023-02-28T02:44:34;6.80;;;2.30;;
71937;SDS011;59810;48.800;9.086;2023-02-28T02:47:03;7.38;;;2.53;;
71937;SDS011;59810;48.800;9.086;2023-02-28T02:49:35;6.13;;;2.60;;
71937;SDS011;59810;48.800;9.086;2023-02-28T02:52:07;7.07;;;2.83;;
71937;SDS011;59810;48.800;9.086;2023-02-28T02:54:40;8.80;;;2.67;;
71937;SDS011;59810;48.800;9.086;2023-02-28T02:57:10;7.80;;;2.57;;
71937;SDS011;59810;48.800;9.086;2023-02-28T02:59:40;6.72;;;2.63;;
71937;SDS011;59810;48.800;9.086;2023-02-28T03:02:08;7.40;;;2.40;;
71937;SDS011;59810;48.800;9.086;2023-02-28T03:04:45;10.38;;;2.85;;
71937;SDS011;59810;48.800;9.086;2023-02-28T03:07:16;7.95;;;2.97;;
71937;SDS011;59810;48.800;9.086;2023-02-28T03:09:49;6.33;;;2.43;;
71937;SDS011;59810;48.800;9.086;2023-02-28T03:12:17;6.82;;;2.40;;
71937;SDS011;59810;48.800;9.086;2023-02-28T03:14:55;8.00;;;2.87;;
71937;SDS011;59810;48.800;9.086;2023-02-28T03:22:45;7.30;;;3.07;;
71937;SDS011;59810;48.800;9.086;2023-02-28T03:28:17;7.18;;;2.80;;
71937;SDS011;59810;48.800;9.086;2023-02-28T03:30:49;7.40;;;2.85;;
71937;SDS011;59810;48.800;9.086;2023-02-28T03:33:24;10.13;;;3.35;;
71937;SDS011;59810;48.800;9.086;2023-02-28T03:35:58;8.57;;;2.90;;
71937;SDS011;59810;48.800;9.086;2023-02-28T03:38:29;7.43;;;2.70;;
71937;SDS011;59810;48.800;9.086;2023-02-28T03:41:25;6.78;;;2.50;;
71937;SDS011;59810;48.800;9.086;2023-02-28T03:43:56;7.68;;;2.92;;
71937;SDS011;59810;48.800;9.086;2023-02-28T03:46:28;7.63;;;3.00;;
71937;SDS011;59810;48.800;9.086;2023-02-28T03:49:15;7.60;;;2.90;;
71937;SDS011;59810;48.800;9.086;2023-02-28T03:51:45;7.65;;;2.58;;
71937;SDS011;59810;48.800;9.086;2023-02-28T03:54:23;6.70;;;2.78;;
71937;SDS011;59810;48.800;9.086;2023-02-28T03:57:05;7.60;;;3.05;;
71937;SDS011;59810;48.800;9.086;2023-02-28T03:59:37;7.60;;;2.83;;
71937;SDS011;59810;48.800;9.086;2023-02-28T04:02:09;7.97;;;2.80;;
71937;SDS011;59810;48.800;9.086;2023-02-28T04:04:35;7.32;;;3.08;;
71937;SDS011;59810;48.800;9.086;2023-02-28T04:07:07;8.50;;;3.23;;
71937;SDS011;59810;48.800;9.086;2023-02-28T04:09:33;10.20;;;3.13;;
71937;SDS011;59810;48.800;9.086;2023-02-28T04:11:59;7.68;;;2.85;;
71937;SDS011;59810;48.800;9.086;2023-02-28T04:14:25;9.27;;;3.03;;
71937;SDS011;59810;48.800;9.086;2023-02-28T04:16:53;9.15;;;2.90;;
71937;SDS011;59810;48.800;9.086;2023-02-28T04:19:20;7.15;;;3.25;;
71937;SDS011;59810;48.800;9.086;2023-02-28T04:21:47;9.50;;;3.20;;
71937;SDS011;59810;48.800;9.086;2023-02-28T04:24:17;10.70;;;3.33;;
71937;SDS011;59810;48.800;9.086;2023-02-28T04:26:50;7.60;;;2.70;;
71937;SDS011;59810;48.800;9.086;2023-02-28T04:29:24;8.63;;;3.00;;
71937;SDS011;59810;48.800;9.086;2023-02-28T04:31:52;9.60;;;2.90;;
71937;SDS011;59810;48.800;9.086;2023-02-28T04:34:18;7.38;;;2.90;;
71937;SDS011;59810;48.800;9.086;2023-02-28T04:36:44;7.55;;;3.22;;
71937;SDS011;59810;48.800;9.086;2023-02-28T04:39:13;7.93;;;3.27;;
71937;SDS011;59810;48.800;9.086;2023-02-28T04:41:38;6.70;;;2.70;;
71937;SDS011;59810;48.800;9.086;2023-02-28T04:44:04;8.23;;;2.87;;
71937;SDS011;59810;48.800;9.086;2023-02-28T04:46:29;8.90;;;3.50;;
71937;SDS011;59810;48.800;9.086;2023-02-28T04:48:57;8.50;;;3.20;;
71937;SDS011;59810;48.800;9.086;2023-02-28T04:51:23;8.82;;;2.83;;
71937;SDS011;59810;48.800;9.086;2023-02-28T04:53:51;10.00;;;2.88;;
71937;SDS011;59810;48.800;9.086;2023-02-28T04:56:18;8.02;;;3.17;;
71937;SDS011;59810;48.800;9.086;2023-02-28T04:58:46;8.38;;;3.13;;
71937;SDS011;59810;48.800;9.086;2023-02-28T05:03:49;8.50;;;2.85;;
71937;SDS011;59810;48.800;9.086;2023-02-28T05:06:16;8.13;;;3.33;;
71937;SDS011;59810;48.800;9.086;2023-02-28T05:08:42;8.43;;;3.10;;
71937;SDS011;59810;48.800;9.086;2023-02-28T05:11:12;9.90;;;2.93;;
71937;SDS011;59810;48.800;9.086;2023-02-28T05:13:40;10.43;;;2.90;;
71937;SDS011;59810;48.800;9.086;2023-02-28T05:16:05;9.10;;;3.40;;
71937;SDS011;59810;48.800;9.086;2023-02-28T05:18:31;8.00;;;3.40;;
71937;SDS011;59810;48.800;9.086;2023-02-28T05:20:56;9.50;;;3.60;;
71937;SDS011;59810;48.800;9.086;2023-02-28T05:23:21;12.03;;;4.13;;
71937;SDS011;59810;48.800;9.086;2023-02-28T05:25:54;8.27;;;3.25;;
71937;SDS011;59810;48.800;9.086;2023-02-28T05:28:20;8.83;;;3.20;;
71937;SDS011;59810;48.800;9.086;2023-02-28T05:30:46;8.63;;;3.10;;
71937;SDS011;59810;48.800;9.086;2023-02-28T05:33:12;10.37;;;3.30;;
71937;SDS011;59810;48.800;9.086;2023-02-28T05:35:38;8.70;;;3.17;;
71937;SDS011;59810;48.800;9.086;2023-02-28T05:38:04;9.43;;;3.47;;
71937;SDS011;59810;48.800;9.086;2023-02-28T05:40:32;7.93;;;3.20;;
71937;SDS011;59810;48.800;9.086;2023-02-28T05:42:57;9.18;;;3.35;;
71937;SDS011;59810;48.800;9.086;2023-02-28T05:45:23;10.07;;;3.67;;
71937;SDS011;59810;48.800;9.086;2023-02-28T05:47:48;10.10;;;3.53;;
71937;SDS011;59810;48.800;9.086;2023-02-28T05:50:13;10.63;;;3.80;;
71937;SDS011;59810;48.800;9.086;2023-02-28T05:52:39;9.90;;;3.78;;
71937;SDS011;59810;48.800;9.086;2023-02-28T05:55:05;10.83;;;3.67;;
71937;SDS011;59810;48.800;9.086;2023-02-28T05:57:31;7.75;;;3.35;;
71937;SDS011;59810;48.800;9.086;2023-02-28T05:59:56;9.80;;;3.43;;
71937;SDS011;59810;48.800;9.086;2023-02-28T06:02:22;11.03;;;3.80;;
71937;SDS011;59810;48.800;9.086;2023-02-28T06:04:47;10.87;;;3.43;;
71937;SDS011;59810;48.800;9.086;2023-02-28T06:07:15;10.85;;;3.65;;
71937;SDS011;59810;48.800;9.086;2023-02-28T06:09:42;7.32;;;3.35;;
71937;SDS011;59810;48.800;9.086;2023-02-28T06:12:07;8.47;;;3.30;;
71937;SDS011;59810;48.800;9.086;2023-02-28T06:14:34;10.38;;;3.45;;
71937;SDS011;59810;48.800;9.086;2023-02-28T06:17:01;11.85;;;3.45;;
71937;SDS011;59810;48.800;9.086;2023-02-28T06:19:28;8.05;;;3.38;;
71937;SDS011;59810;48.800;9.086;2023-02-28T06:21:55;8.70;;;3.40;;
71937;SDS011;59810;48.800;9.086;2023-02-28T06:24:22;10.25;;;3.65;;
71937;SDS011;59810;48.800;9.086;2023-02-28T06:26:49;9.02;;;3.40;;
71937;SDS011;59810;48.800;9.086;2023-02-28T06:29:15;10.52;;;4.13;;
71937;SDS011;59810;48.800;9.086;2023-02-28T06:31:41;12.48;;;4.45;;
71937;SDS011;59810;48.800;9.086;2023-02-28T06:34:10;10.37;;;3.70;;
71937;SDS011;59810;48.800;9.086;2023-02-28T06:36:39;9.85;;;3.80;;
71937;SDS011;59810;48.800;9.086;2023-02-28T06:39:06;9.18;;;3.28;;
71937;SDS011;59810;48.800;9.086;2023-02-28T06:41:32;11.55;;;3.47;;
71937;SDS011;59810;48.800;9.086;2023-02-28T06:44:02;9.25;;;3.60;;
71937;SDS011;59810;48.800;9.086;2023-02-28T06:46:38;9.47;;;3.53;;
71937;SDS011;59810;48.800;9.086;2023-02-28T06:49:07;9.43;;;3.70;;
71937;SDS011;59810;48.800;9.086;2023-02-28T06:51:37;9.65;;;3.70;;
71937;SDS011;59810;48.800;9.086;2023-02-28T06:54:06;12.93;;;4.10;;
71937;SDS011;59810;48.800;9.086;2023-02-28T06:56:34;11.68;;;3.95;;
71937;SDS011;59810;48.800;9.086;2023-02-28T06:58:59;10.50;;;3.83;;
71937;SDS011;59810;48.800;9.086;2023-02-28T07:01:25;9.57;;;3.87;;
71937;SDS011;59810;48.800;9.086;2023-02-28T07:03:50;9.43;;;3.75;;
71937;SDS011;59810;48.800;9.086;2023-02-28T07:06:17;11.30;;;4.00;;
71937;SDS011;59810;48.800;9.086;2023-02-28T07:08:43;10.73;;;4.23;;
71937;SDS011;59810;48.800;9.086;2023-02-28T07:11:11;10.32;;;3.63;;
71937;SDS011;59810;48.800;9.086;2023-02-28T07:13:37;12.43;;;4.40;;
71937;SDS011;59810;48.800;9.086;2023-02-28T07:16:05;11.05;;;4.05;;
71937;SDS011;59810;48.800;9.086;2023-02-28T07:18:34;11.95;;;4.05;;
71937;SDS011;59810;48.800;9.086;2023-02-28T07:21:01;9.90;;;3.90;;
71937;SDS011;59810;48.800;9.086;2023-02-28T07:23:28;10.93;;;3.57;;
71937;SDS011;59810;48.800;9.086;2023-02-28T07:25:53;11.57;;;4.18;;
71937;SDS011;59810;48.800;9.086;2023-02-28T07:28:18;8.67;;;3.27;;
71937;SDS011;59810;48.800;9.086;2023-02-28T07:30:44;11.90;;;4.33;;
71937;SDS011;59810;48.800;9.086;2023-02-28T07:33:10;11.60;;;4.00;;
71937;SDS011;59810;48.800;9.086;2023-02-28T07:35:37;9.63;;;3.70;;
71937;SDS011;59810;48.800;9.086;2023-02-28T07:38:03;9.57;;;3.70;;
71937;SDS011;59810;48.800;9.086;2023-02-28T07:40:28;9.73;;;3.63;;
71937;SDS011;59810;48.800;9.086;2023-02-28T07:42:54;11.83;;;4.20;;
71937;SDS011;59810;48.800;9.086;2023-02-28T07:45:23;11.07;;;4.00;;
71937;SDS011;59810;48.800;9.086;2023-02-28T07:47:49;8.93;;;4.13;;
71937;SDS011;59810;48.800;9.086;2023-02-28T07:50:15;11.38;;;4.28;;
71937;SDS011;59810;48.800;9.086;2023-02-28T07:52:41;13.47;;;4.40;;
71937;SDS011;59810;48.800;9.086;2023-02-28T07:55:11;10.55;;;3.92;;
71937;SDS011;59810;48.800;9.086;2023-02-28T07:57:36;11.45;;;4.20;;
71937;SDS011;59810;48.800;9.086;2023-02-28T08:00:05;10.67;;;3.57;;
71937;SDS011;59810;48.800;9.086;2023-02-28T08:02:34;10.23;;;4.05;;
71937;SDS011;59810;48.800;9.086;2023-02-28T08:05:00;11.23;;;4.45;;
71937;SDS011;59810;48.800;9.086;2023-02-28T08:07:26;9.00;;;3.73;;
71937;SDS011;59810;48.800;9.086;2023-02-28T08:09:51;11.40;;;4.25;;
71937;SDS011;59810;48.800;9.086;2023-02-28T08:12:16;13.67;;;4.40;;
71937;SDS011;59810;48.800;9.086;2023-02-28T08:14:42;12.60;;;4.90;;
71937;SDS011;59810;48.800;9.086;2023-02-28T08:17:10;13.75;;;4.93;;
71937;SDS011;59810;48.800;9.086;2023-02-28T08:19:35;11.40;;;4.40;;
71937;SDS011;59810;48.800;9.086;2023-02-28T08:22:01;11.13;;;4.80;;
71937;SDS011;59810;48.800;9.086;2023-02-28T08:24:26;12.97;;;4.53;;
71937;SDS011;59810;48.800;9.086;2023-02-28T08:26:52;10.47;;;4.37;;
71937;SDS011;59810;48.800;9.086;2023-02-28T08:29:19;11.40;;;4.43;;
71937;SDS011;59810;48.800;9.086;2023-02-28T08:31:44;11.47;;;5.27;;
71937;SDS011;59810;48.800;9.086;2023-02-28T08:34:13;13.83;;;5.70;;
71937;SDS011;59810;48.800;9.086;2023-02-28T08:36:43;17.88;;;5.85;;
71937;SDS011;59810;48.800;9.086;2023-02-28T08:39:14;11.48;;;4.68;;
71937;SDS011;59810;48.800;9.086;2023-02-28T08:41:45;11.23;;;4.57;;
71937;SDS011;59810;48.800;9.086;2023-02-28T08:44:12;11.38;;;4.80;;
71937;SDS011;59810;48.800;9.086;2023-02-28T08:46:38;12.17;;;4.93;;
71937;SDS011;59810;48.800;9.086;2023-02-28T08:49:06;12.68;;;4.90;;
71937;SDS011;59810;48.800;9.086;2023-02-28T08:51:32;14.23;;;5.10;;
71937;SDS011;59810;48.800;9.086;2023-02-28T08:53:58;14.63;;;5.00;;
71937;SDS011;59810;48.800;9.086;2023-02-28T08:56:27;14.27;;;5.25;;
71937;SDS011;59810;48.800;9.086;2023-02-28T08:58:58;11.87;;;5.73;;
71937;SDS011;59810;48.800;9.086;2023-02-28T09:01:27;12.23;;;4.90;;
71937;SDS011;59810;48.800;9.086;2023-02-28T09:03:53;14.50;;;4.97;;
71937;SDS011;59810;48.800;9.086;2023-02-28T09:06:21;13.63;;;4.82;;
71937;SDS011;59810;48.800;9.086;2023-02-28T09:08:48;12.95;;;5.22;;
71937;SDS011;59810;48.800;9.086;2023-02-28T09:11:14;16.05;;;5.40;;
71937;SDS011;59810;48.800;9.086;2023-02-28T09:13:40;13.63;;;5.53;;
71937;SDS011;59810;48.800;9.086;2023-02-28T09:16:06;15.57;;;5.88;;
71937;SDS011;59810;48.800;9.086;2023-02-28T09:18:36;13.13;;;5.37;;
71937;SDS011;59810;48.800;9.086;2023-02-28T09:21:05;13.18;;;4.90;;
71937;SDS011;59810;48.800;9.086;2023-02-28T09:23:34;10.70;;;5.13;;
71937;SDS011;59810;48.800;9.086;2023-02-28T09:26:02;14.15;;;5.40;;
71937;SDS011;59810;48.800;9.086;2023-02-28T09:28:28;12.93;;;5.90;;
71937;SDS011;59810;48.800;9.086;2023-02-28T09:30:54;12.32;;;5.10;;
71937;SDS011;59810;48.800;9.086;2023-02-28T09:33:19;14.77;;;5.13;;
71937;SDS011;59810;48.800;9.086;2023-02-28T09:35:56;13.00;;;5.00;;
71937;SDS011;59810;48.800;9.086;2023-02-28T09:38:23;11.40;;;4.57;;
71937;SDS011;59810;48.800;9.086;2023-02-28T09:40:53;12.43;;;5.40;;
71937;SDS011;59810;48.800;9.086;2023-02-28T09:43:21;12.05;;;4.90;;
71937;SDS011;59810;48.800;9.086;2023-02-28T09:45:55;11.07;;;4.87;;
71937;SDS011;59810;48.800;9.086;2023-02-28T09:48:39;12.82;;;5.05;;
71937;SDS011;59810;48.800;9.086;2023-02-28T09:51:15;13.30;;;5.53;;
71937;SDS011;59810;48.800;9.086;2023-02-28T09:53:57;11.65;;;5.03;;
71937;SDS011;59810;48.800;9.086;2023-02-28T09:56:27;13.60;;;5.95;;
71937;SDS011;59810;48.800;9.086;2023-02-28T09:59:04;11.70;;;4.60;;
71937;SDS011;59810;48.800;9.086;2023-02-28T10:09:59;11.50;;;5.07;;
71937;SDS011;59810;48.800;9.086;2023-02-28T10:12:30;12.97;;;5.97;;
71937;SDS011;59810;48.800;9.086;2023-02-28T10:14:57;13.05;;;5.57;;
71937;SDS011;59810;48.800;9.086;2023-02-28T10:17:31;13.48;;;6.07;;
71937;SDS011;59810;48.800;9.086;2023-02-28T10:20:09;13.63;;;5.60;;
71937;SDS011;59810;48.800;9.086;2023-02-28T10:25:27;16.47;;;5.23;;
71937;SDS011;59810;48.800;9.086;2023-02-28T10:27:54;11.95;;;5.38;;
71937;SDS011;59810;48.800;9.086;2023-02-28T10:30:26;13.82;;;5.97;;
71937;SDS011;59810;48.800;9.086;2023-02-28T10:32:52;12.52;;;5.82;;
71937;SDS011;59810;48.800;9.086;2023-02-28T10:37:47;15.17;;;6.37;;
71937;SDS011;59810;48.800;9.086;2023-02-28T10:45:37;15.57;;;6.53;;
71937;SDS011;59810;48.800;9.086;2023-02-28T10:48:23;14.70;;;6.57;;
71937;SDS011;59810;48.800;9.086;2023-02-28T10:51:18;12.40;;;5.90;;
71937;SDS011;59810;48.800;9.086;2023-02-28T10:53:48;14.23;;;6.15;;
71937;SDS011;59810;48.800;9.086;2023-02-28T10:56:17;12.85;;;5.93;;
71937;SDS011;59810;48.800;9.086;2023-02-28T10:58:50;13.83;;;6.10;;
71937;SDS011;59810;48.800;9.086;2023-02-28T11:01:42;12.77;;;5.72;;
71937;SDS011;59810;48.800;9.086;2023-02-28T11:07:01;13.05;;;5.55;;
71937;SDS011;59810;48.800;9.086;2023-02-28T11:09:33;13.90;;;6.30;;
71937;SDS011;59810;48.800;9.086;2023-02-28T11:12:00;12.73;;;6.30;;
71937;SDS011;59810;48.800;9.086;2023-02-28T11:14:30;14.90;;;5.85;;
71937;SDS011;59810;48.800;9.086;2023-02-28T11:17:02;13.25;;;6.18;;
71937;SDS011;59810;48.800;9.086;2023-02-28T11:19:40;14.32;;;6.18;;
71937;SDS011;59810;48.800;9.086;2023-02-28T11:22:10;13.90;;;6.55;;
71937;SDS011;59810;48.800;9.086;2023-02-28T11:24:44;13.90;;;6.33;;
71937;SDS011;59810;48.800;9.086;2023-02-28T11:27:26;14.82;;;6.55;;
71937;SDS011;59810;48.800;9.086;2023-02-28T11:30:29;12.10;;;5.55;;
71937;SDS011;59810;48.800;9.086;2023-02-28T11:33:01;13.10;;;6.40;;
71937;SDS011;59810;48.800;9.086;2023-02-28T11:35:46;13.20;;;6.35;;
71937;SDS011;59810;48.800;9.086;2023-02-28T11:38:14;13.47;;;6.53;;
71937;SDS011;59810;48.800;9.086;2023-02-28T11:51:28;13.07;;;5.88;;
71937;SDS011;59810;48.800;9.086;2023-02-28T11:54:21;10.52;;;5.07;;
71937;SDS011;59810;48.800;9.086;2023-02-28T11:56:51;12.13;;;6.15;;
71937;SDS011;59810;48.800;9.086;2023-02-28T12:04:38;12.00;;;6.53;;
71937;SDS011;59810;48.800;9.086;2023-02-28T12:07:16;15.82;;;6.45;;
71937;SDS011;59810;48.800;9.086;2023-02-28T12:09:54;13.80;;;6.20;;
71937;SDS011;59810;48.800;9.086;2023-02-28T12:13:16;10.90;;;5.93;;
71937;SDS011;59810;48.800;9.086;2023-02-28T12:26:43;13.63;;;6.47;;
71937;SDS011;59810;48.800;9.086;2023-02-28T12:29:19;12.10;;;5.82;;
71937;SDS011;59810;48.800;9.086;2023-02-28T12:34:21;11.48;;;6.38;;
71937;SDS011;59810;48.800;9.086;2023-02-28T12:36:52;13.00;;;6.55;;
71937;SDS011;59810;48.800;9.086;2023-02-28T12:39:26;14.87;;;6.70;;
71937;SDS011;59810;48.800;9.086;2023-02-28T12:44:49;13.02;;;6.13;;
71937;SDS011;59810;48.800;9.086;2023-02-28T12:47:19;12.82;;;6.60;;
71937;SDS011;59810;48.800;9.086;2023-02-28T12:49:56;13.63;;;6.97;;
71937;SDS011;59810;48.800;9.086;2023-02-28T12:58:11;14.68;;;6.88;;
71937;SDS011;59810;48.800;9.086;2023-02-28T13:03:32;11.85;;;5.90;;
71937;SDS011;59810;48.800;9.086;2023-02-28T13:09:08;12.48;;;6.10;;
71937;SDS011;59810;48.800;9.086;2023-02-28T13:11:42;13.52;;;6.35;;
71937;SDS011;59810;48.800;9.086;2023-02-28T13:22:20;13.35;;;5.78;;
71937;SDS011;59810;48.800;9.086;2023-02-28T13:25:04;12.75;;;5.55;;
71937;SDS011;59810;48.800;9.086;2023-02-28T13:27:57;13.97;;;5.93;;
71937;SDS011;59810;48.800;9.086;2023-02-28T13:36:01;10.57;;;5.30;;
71937;SDS011;59810;48.800;9.086;2023-02-28T13:38:34;10.43;;;4.90;;
71937;SDS011;59810;48.800;9.086;2023-02-28T13:41:44;11.97;;;5.40;;
71937;SDS011;59810;48.800;9.086;2023-02-28T13:46:37;11.45;;;5.90;;
71937;SDS011;59810;48.800;9.086;2023-02-28T13:57:44;11.80;;;5.97;;
71937;SDS011;59810;48.800;9.086;2023-02-28T14:08:34;12.10;;;5.43;;
71937;SDS011;59810;48.800;9.086;2023-02-28T14:11:05;11.95;;;5.43;;
71937;SDS011;59810;48.800;9.086;2023-02-28T14:16:09;11.70;;;5.17;;
71937;SDS011;59810;48.800;9.086;2023-02-28T14:18:37;12.63;;;5.47;;
71937;SDS011;59810;48.800;9.086;2023-02-28T14:37:30;11.65;;;5.80;;
71937;SDS011;59810;48.800;9.086;2023-02-28T14:40:01;10.68;;;5.35;;
71937;SDS011;59810;48.800;9.086;2023-02-28T14:44:58;10.20;;;5.07;;
71937;SDS011;59810;48.800;9.086;2023-02-28T14:47:26;10.75;;;5.60;;
71937;SDS011;59810;48.800;9.086;2023-02-28T14:49:55;10.20;;;5.40;;
71937;SDS011;59810;48.800;9.086;2023-02-28T14:52:29;12.55;;;5.25;;
71937;SDS011;59810;48.800;9.086;2023-02-28T14:54:58;11.43;;;5.10;;
71937;SDS011;59810;48.800;9.086;2023-02-28T14:57:26;10.87;;;5.57;;
71937;SDS011;59810;48.800;9.086;2023-02-28T15:02:50;13.45;;;5.80;;
71937;SDS011;59810;48.800;9.086;2023-02-28T15:05:22;10.60;;;5.25;;
71937;SDS011;59810;48.800;9.086;2023-02-28T15:08:00;15.88;;;6.38;;
71937;SDS011;59810;48.800;9.086;2023-02-28T15:10:31;12.10;;;5.10;;
71937;SDS011;59810;48.800;9.086;2023-02-28T15:13:01;11.27;;;5.90;;
71937;SDS011;59810;48.800;9.086;2023-02-28T15:20:58;11.38;;;5.60;;
71937;SDS011;59810;48.800;9.086;2023-02-28T15:23:28;12.47;;;5.30;;
71937;SDS011;59810;48.800;9.086;2023-02-28T15:25:55;11.25;;;5.35;;
71937;SDS011;59810;48.800;9.086;2023-02-28T15:28:21;11.98;;;5.60;;
71937;SDS011;59810;48.800;9.086;2023-02-28T15:30:56;11.75;;;5.65;;
71937;SDS011;59810;48.800;9.086;2023-02-28T15:33:24;11.35;;;6.13;;
71937;SDS011;59810;48.800;9.086;2023-02-28T15:36:02;14.80;;;6.50;;
71937;SDS011;59810;48.800;9.086;2023-02-28T15:38:29;12.35;;;5.80;;
71937;SDS011;59810;48.800;9.086;2023-02-28T15:40:59;10.90;;;5.55;;
71937;SDS011;59810;48.800;9.086;2023-02-28T15:43:26;12.87;;;6.00;;
71937;SDS011;59810;48.800;9.086;2023-02-28T15:46:10;11.70;;;5.45;;
71937;SDS011;59810;48.800;9.086;2023-02-28T15:48:51;10.57;;;5.50;;
71937;SDS011;59810;48.800;9.086;2023-02-28T15:51:37;13.13;;;6.00;;
71937;SDS011;59810;48.800;9.086;2023-02-28T15:54:06;12.45;;;5.97;;
71937;SDS011;59810;48.800;9.086;2023-02-28T15:56:46;12.52;;;5.85;;
71937;SDS011;59810;48.800;9.086;2023-02-28T15:59:21;13.48;;;6.05;;
71937;SDS011;59810;48.800;9.086;2023-02-28T16:02:32;13.75;;;5.97;;
71937;SDS011;59810;48.800;9.086;2023-02-28T16:04:54;12.27;;;5.87;;
71937;SDS011;59810;48.800;9.086;2023-02-28T16:07:20;13.77;;;5.45;;
71937;SDS011;59810;48.800;9.086;2023-02-28T16:09:45;12.83;;;6.00;;
71937;SDS011;59810;48.800;9.086;2023-02-28T16:12:12;12.88;;;6.18;;
71937;SDS011;59810;48.800;9.086;2023-02-28T16:14:38;12.43;;;5.97;;
71937;SDS011;59810;48.800;9.086;2023-02-28T16:17:06;15.07;;;6.03;;
71937;SDS011;59810;48.800;9.086;2023-02-28T16:19:41;14.55;;;6.18;;
71937;SDS011;59810;48.800;9.086;2023-02-28T16:22:09;12.90;;;5.40;;
71937;SDS011;59810;48.800;9.086;2023-02-28T16:24:34;12.45;;;5.95;;
71937;SDS011;59810;48.800;9.086;2023-02-28T16:27:03;12.47;;;5.53;;
71937;SDS011;59810;48.800;9.086;2023-02-28T16:29:30;13.48;;;5.40;;
71937;SDS011;59810;48.800;9.086;2023-02-28T16:32:04;12.88;;;5.85;;
71937;SDS011;59810;48.800;9.086;2023-02-28T16:34:30;13.13;;;5.75;;
71937;SDS011;59810;48.800;9.086;2023-02-28T16:36:56;12.43;;;6.10;;
71937;SDS011;59810;48.800;9.086;2023-02-28T16:39:26;12.80;;;5.78;;
71937;SDS011;59810;48.800;9.086;2023-02-28T16:41:52;11.20;;;5.60;;
71937;SDS011;59810;48.800;9.086;2023-02-28T16:44:26;13.65;;;5.82;;
71937;SDS011;59810;48.800;9.086;2023-02-28T16:46:56;14.15;;;5.80;;
71937;SDS011;59810;48.800;9.086;2023-02-28T16:49:21;12.43;;;6.03;;
71937;SDS011;59810;48.800;9.086;2023-02-28T16:51:49;12.57;;;5.90;;
71937;SDS011;59810;48.800;9.086;2023-02-28T16:54:15;13.30;;;6.47;;
71937;SDS011;59810;48.800;9.086;2023-02-28T16:56:42;14.75;;;6.80;;
71937;SDS011;59810;48.800;9.086;2023-02-28T16:59:09;13.90;;;6.67;;
71937;SDS011;59810;48.800;9.086;2023-02-28T17:01:36;27.05;;;9.02;;
71937;SDS011;59810;48.800;9.086;2023-02-28T17:04:03;13.87;;;6.10;;
71937;SDS011;59810;48.800;9.086;2023-02-28T17:06:29;12.02;;;6.15;;
71937;SDS011;59810;48.800;9.086;2023-02-28T17:08:59;14.90;;;6.57;;
71937;SDS011;59810;48.800;9.086;2023-02-28T17:11:25;14.80;;;5.80;;
71937;SDS011;59810;48.800;9.086;2023-02-28T17:13:51;13.32;;;5.90;;
71937;SDS011;59810;48.800;9.086;2023-02-28T17:16:32;13.30;;;6.53;;
71937;SDS011;59810;48.800;9.086;2023-02-28T17:19:00;13.68;;;6.57;;
71937;SDS011;59810;48.800;9.086;2023-02-28T17:21:30;15.70;;;7.47;;
71937;SDS011;59810;48.800;9.086;2023-02-28T17:23:59;14.45;;;6.20;;
71937;SDS011;59810;48.800;9.086;2023-02-28T17:26:25;19.98;;;8.02;;
71937;SDS011;59810;48.800;9.086;2023-02-28T17:28:52;18.50;;;8.57;;
71937;SDS011;59810;48.800;9.086;2023-02-28T17:31:20;19.13;;;7.68;;
71937;SDS011;59810;48.800;9.086;2023-02-28T17:33:46;17.20;;;7.90;;
71937;SDS011;59810;48.800;9.086;2023-02-28T17:36:22;18.27;;;7.63;;